sensor_id;sensor_type;location;lat;lon;timestamp;P1;durP1;ratioP1;P2;durP2;ratioP2
50976;SDS011;36992;48.200;12.418;2022-12-18T00:02:08;16.20;;;7.68;;
50976;SDS011;36992;48.200;12.418;2022-12-18T00:04:34;19.33;;;9.57;;
50976;SDS011;36992;48.200;12.418;2022-12-18T00:07:01;17.98;;;8.80;;
50976;SDS011;36992;48.200;12.418;2022-12-18T00:09:28;19.23;;;8.65;;
50976;SDS011;36992;48.200;12.418;2022-12-18T00:11:54;14.27;;;7.13;;
50976;SDS011;36992;48.200;12.418;2022-12-18T00:14:21;14.75;;;6.50;;
50976;SDS011;36992;48.200;12.418;2022-12-18T00:16:50;12.82;;;6.43;;
50976;SDS011;36992;48.200;12.418;2022-12-18T00:19:17;16.80;;;6.88;;
50976;SDS011;36992;48.200;12.418;2022-12-18T00:21:44;14.20;;;7.07;;
50976;SDS011;36992;48.200;12.418;2022-12-18T00:24:11;13.20;;;6.35;;
50976;SDS011;36992;48.200;12.418;2022-12-18T00:26:38;15.90;;;8.10;;
50976;SDS011;36992;48.200;12.418;2022-12-18T00:29:06;12.85;;;6.43;;
50976;SDS011;36992;48.200;12.418;2022-12-18T00:31:36;15.00;;;7.30;;
50976;SDS011;36992;48.200;12.418;2022-12-18T00:34:04;12.77;;;6.18;;
50976;SDS011;36992;48.200;12.418;2022-12-18T00:36:32;15.50;;;8.02;;
50976;SDS011;36992;48.200;12.418;2022-12-18T00:39:00;17.02;;;7.28;;
50976;SDS011;36992;48.200;12.418;2022-12-18T00:41:29;13.80;;;7.07;;
50976;SDS011;36992;48.200;12.418;2022-12-18T00:44:14;15.25;;;7.05;;
50976;SDS011;36992;48.200;12.418;2022-12-18T00:46:41;13.48;;;6.85;;
50976;SDS011;36992;48.200;12.418;2022-12-18T00:49:10;15.20;;;7.15;;
50976;SDS011;36992;48.200;12.418;2022-12-18T00:51:37;15.02;;;8.05;;
50976;SDS011;36992;48.200;12.418;2022-12-18T00:54:03;15.75;;;7.78;;
50976;SDS011;36992;48.200;12.418;2022-12-18T00:56:30;13.45;;;6.30;;
50976;SDS011;36992;48.200;12.418;2022-12-18T00:58:57;12.85;;;5.97;;
50976;SDS011;36992;48.200;12.418;2022-12-18T01:01:23;14.15;;;7.50;;
50976;SDS011;36992;48.200;12.418;2022-12-18T01:03:50;11.93;;;5.28;;
50976;SDS011;36992;48.200;12.418;2022-12-18T01:06:18;12.05;;;5.43;;
50976;SDS011;36992;48.200;12.418;2022-12-18T01:08:44;11.52;;;5.45;;
50976;SDS011;36992;48.200;12.418;2022-12-18T01:11:12;12.05;;;6.10;;
50976;SDS011;36992;48.200;12.418;2022-12-18T01:13:41;11.48;;;6.32;;
50976;SDS011;36992;48.200;12.418;2022-12-18T01:16:08;11.13;;;5.82;;
50976;SDS011;36992;48.200;12.418;2022-12-18T01:18:37;11.95;;;5.28;;
50976;SDS011;36992;48.200;12.418;2022-12-18T01:21:05;17.80;;;8.45;;
50976;SDS011;36992;48.200;12.418;2022-12-18T01:23:34;12.00;;;6.25;;
50976;SDS011;36992;48.200;12.418;2022-12-18T01:26:04;13.02;;;6.95;;
50976;SDS011;36992;48.200;12.418;2022-12-18T01:28:31;13.65;;;6.47;;
50976;SDS011;36992;48.200;12.418;2022-12-18T01:31:08;18.35;;;7.40;;
50976;SDS011;36992;48.200;12.418;2022-12-18T01:33:39;15.50;;;7.97;;
50976;SDS011;36992;48.200;12.418;2022-12-18T01:36:06;12.85;;;6.15;;
50976;SDS011;36992;48.200;12.418;2022-12-18T01:38:34;13.18;;;6.20;;
50976;SDS011;36992;48.200;12.418;2022-12-18T01:41:01;15.40;;;7.32;;
50976;SDS011;36992;48.200;12.418;2022-12-18T01:43:41;11.85;;;6.05;;
50976;SDS011;36992;48.200;12.418;2022-12-18T01:46:12;12.60;;;5.50;;
50976;SDS011;36992;48.200;12.418;2022-12-18T01:48:39;12.27;;;5.22;;
50976;SDS011;36992;48.200;12.418;2022-12-18T01:51:07;13.70;;;5.90;;
50976;SDS011;36992;48.200;12.418;2022-12-18T01:53:37;15.55;;;8.60;;
50976;SDS011;36992;48.200;12.418;2022-12-18T01:56:06;12.00;;;5.88;;
50976;SDS011;36992;48.200;12.418;2022-12-18T01:58:35;17.10;;;8.65;;
50976;SDS011;36992;48.200;12.418;2022-12-18T02:01:10;11.05;;;5.40;;
50976;SDS011;36992;48.200;12.418;2022-12-18T02:03:37;17.08;;;8.30;;
50976;SDS011;36992;48.200;12.418;2022-12-18T02:06:09;15.25;;;7.63;;
50976;SDS011;36992;48.200;12.418;2022-12-18T02:08:43;13.02;;;5.50;;
50976;SDS011;36992;48.200;12.418;2022-12-18T02:11:18;10.57;;;5.78;;
50976;SDS011;36992;48.200;12.418;2022-12-18T02:13:56;13.35;;;5.80;;
50976;SDS011;36992;48.200;12.418;2022-12-18T02:16:34;12.98;;;5.78;;
50976;SDS011;36992;48.200;12.418;2022-12-18T02:19:11;12.55;;;5.88;;
50976;SDS011;36992;48.200;12.418;2022-12-18T02:21:49;11.82;;;4.88;;
50976;SDS011;36992;48.200;12.418;2022-12-18T02:24:27;12.10;;;5.85;;
50976;SDS011;36992;48.200;12.418;2022-12-18T02:27:00;11.07;;;5.88;;
50976;SDS011;36992;48.200;12.418;2022-12-18T02:29:32;12.27;;;5.63;;
50976;SDS011;36992;48.200;12.418;2022-12-18T02:32:03;12.35;;;5.53;;
50976;SDS011;36992;48.200;12.418;2022-12-18T02:34:32;11.85;;;5.13;;
50976;SDS011;36992;48.200;12.418;2022-12-18T02:37:04;13.68;;;6.22;;
50976;SDS011;36992;48.200;12.418;2022-12-18T02:39:33;13.77;;;6.43;;
50976;SDS011;36992;48.200;12.418;2022-12-18T02:42:03;14.68;;;5.90;;
50976;SDS011;36992;48.200;12.418;2022-12-18T02:44:33;12.52;;;6.55;;
50976;SDS011;36992;48.200;12.418;2022-12-18T02:46:59;12.70;;;6.57;;
50976;SDS011;36992;48.200;12.418;2022-12-18T02:49:30;15.13;;;5.90;;
50976;SDS011;36992;48.200;12.418;2022-12-18T02:52:02;13.00;;;6.63;;
50976;SDS011;36992;48.200;12.418;2022-12-18T02:54:36;11.40;;;5.50;;
50976;SDS011;36992;48.200;12.418;2022-12-18T02:57:22;10.57;;;4.65;;
50976;SDS011;36992;48.200;12.418;2022-12-18T02:59:56;12.52;;;5.95;;
50976;SDS011;36992;48.200;12.418;2022-12-18T03:02:29;14.38;;;6.28;;
50976;SDS011;36992;48.200;12.418;2022-12-18T03:05:05;16.40;;;7.72;;
50976;SDS011;36992;48.200;12.418;2022-12-18T03:07:38;12.32;;;5.85;;
50976;SDS011;36992;48.200;12.418;2022-12-18T03:10:09;13.15;;;6.18;;
50976;SDS011;36992;48.200;12.418;2022-12-18T03:12:42;14.95;;;7.07;;
50976;SDS011;36992;48.200;12.418;2022-12-18T03:15:13;16.30;;;7.93;;
50976;SDS011;36992;48.200;12.418;2022-12-18T03:17:46;14.52;;;7.13;;
50976;SDS011;36992;48.200;12.418;2022-12-18T03:20:19;13.73;;;6.72;;
50976;SDS011;36992;48.200;12.418;2022-12-18T03:22:49;13.95;;;6.38;;
50976;SDS011;36992;48.200;12.418;2022-12-18T03:25:19;16.27;;;8.68;;
50976;SDS011;36992;48.200;12.418;2022-12-18T03:27:51;14.27;;;6.18;;
50976;SDS011;36992;48.200;12.418;2022-12-18T03:30:22;14.77;;;6.57;;
50976;SDS011;36992;48.200;12.418;2022-12-18T03:32:52;20.88;;;9.00;;
50976;SDS011;36992;48.200;12.418;2022-12-18T03:35:24;15.82;;;7.63;;
50976;SDS011;36992;48.200;12.418;2022-12-18T03:37:54;16.92;;;8.00;;
50976;SDS011;36992;48.200;12.418;2022-12-18T03:40:21;15.63;;;7.95;;
50976;SDS011;36992;48.200;12.418;2022-12-18T03:42:55;18.73;;;7.57;;
50976;SDS011;36992;48.200;12.418;2022-12-18T03:45:30;17.98;;;8.07;;
50976;SDS011;36992;48.200;12.418;2022-12-18T03:48:03;16.30;;;7.22;;
50976;SDS011;36992;48.200;12.418;2022-12-18T03:50:37;15.23;;;6.60;;
50976;SDS011;36992;48.200;12.418;2022-12-18T03:53:12;15.77;;;6.40;;
50976;SDS011;36992;48.200;12.418;2022-12-18T03:55:44;12.57;;;5.68;;
50976;SDS011;36992;48.200;12.418;2022-12-18T03:58:16;12.18;;;5.28;;
50976;SDS011;36992;48.200;12.418;2022-12-18T04:00:46;12.98;;;5.90;;
50976;SDS011;36992;48.200;12.418;2022-12-18T04:03:16;12.85;;;5.82;;
50976;SDS011;36992;48.200;12.418;2022-12-18T04:05:45;18.00;;;8.35;;
50976;SDS011;36992;48.200;12.418;2022-12-18T04:08:15;15.70;;;6.50;;
50976;SDS011;36992;48.200;12.418;2022-12-18T04:10:42;15.50;;;6.88;;
50976;SDS011;36992;48.200;12.418;2022-12-18T04:13:09;17.80;;;7.88;;
50976;SDS011;36992;48.200;12.418;2022-12-18T04:15:37;16.98;;;6.32;;
50976;SDS011;36992;48.200;12.418;2022-12-18T04:18:05;16.10;;;8.10;;
50976;SDS011;36992;48.200;12.418;2022-12-18T04:20:31;14.48;;;6.63;;
50976;SDS011;36992;48.200;12.418;2022-12-18T04:22:58;16.63;;;7.28;;
50976;SDS011;36992;48.200;12.418;2022-12-18T04:25:24;23.35;;;10.13;;
50976;SDS011;36992;48.200;12.418;2022-12-18T04:27:51;17.60;;;8.50;;
50976;SDS011;36992;48.200;12.418;2022-12-18T04:30:17;16.17;;;6.47;;
50976;SDS011;36992;48.200;12.418;2022-12-18T04:32:45;17.25;;;7.35;;
50976;SDS011;36992;48.200;12.418;2022-12-18T04:35:12;11.93;;;5.65;;
50976;SDS011;36992;48.200;12.418;2022-12-18T04:37:38;22.08;;;8.50;;
50976;SDS011;36992;48.200;12.418;2022-12-18T04:40:05;15.25;;;7.20;;
50976;SDS011;36992;48.200;12.418;2022-12-18T04:42:32;13.98;;;6.38;;
50976;SDS011;36992;48.200;12.418;2022-12-18T04:44:59;16.98;;;7.72;;
50976;SDS011;36992;48.200;12.418;2022-12-18T04:47:25;13.15;;;5.65;;
50976;SDS011;36992;48.200;12.418;2022-12-18T04:49:53;13.38;;;5.47;;
50976;SDS011;36992;48.200;12.418;2022-12-18T04:52:20;14.00;;;6.95;;
50976;SDS011;36992;48.200;12.418;2022-12-18T04:54:46;12.27;;;5.60;;
50976;SDS011;36992;48.200;12.418;2022-12-18T04:57:13;13.45;;;5.53;;
50976;SDS011;36992;48.200;12.418;2022-12-18T04:59:39;16.25;;;7.32;;
50976;SDS011;36992;48.200;12.418;2022-12-18T05:02:06;12.50;;;5.30;;
50976;SDS011;36992;48.200;12.418;2022-12-18T05:04:32;15.55;;;6.53;;
50976;SDS011;36992;48.200;12.418;2022-12-18T05:07:00;11.90;;;5.40;;
50976;SDS011;36992;48.200;12.418;2022-12-18T05:09:27;12.20;;;5.65;;
50976;SDS011;36992;48.200;12.418;2022-12-18T05:11:53;11.80;;;4.88;;
50976;SDS011;36992;48.200;12.418;2022-12-18T05:14:20;10.95;;;4.80;;
50976;SDS011;36992;48.200;12.418;2022-12-18T05:16:46;12.38;;;6.13;;
50976;SDS011;36992;48.200;12.418;2022-12-18T05:19:13;10.95;;;4.93;;
50976;SDS011;36992;48.200;12.418;2022-12-18T05:21:39;10.25;;;5.50;;
50976;SDS011;36992;48.200;12.418;2022-12-18T05:24:07;11.60;;;4.72;;
50976;SDS011;36992;48.200;12.418;2022-12-18T05:26:34;11.73;;;5.47;;
50976;SDS011;36992;48.200;12.418;2022-12-18T05:29:00;12.55;;;6.63;;
50976;SDS011;36992;48.200;12.418;2022-12-18T05:31:27;12.23;;;5.93;;
50976;SDS011;36992;48.200;12.418;2022-12-18T05:33:53;11.20;;;5.22;;
50976;SDS011;36992;48.200;12.418;2022-12-18T05:36:20;12.35;;;4.75;;
50976;SDS011;36992;48.200;12.418;2022-12-18T05:38:46;14.88;;;7.25;;
50976;SDS011;36992;48.200;12.418;2022-12-18T05:41:14;15.05;;;6.60;;
50976;SDS011;36992;48.200;12.418;2022-12-18T05:43:41;13.48;;;6.18;;
50976;SDS011;36992;48.200;12.418;2022-12-18T05:46:08;13.73;;;6.18;;
50976;SDS011;36992;48.200;12.418;2022-12-18T05:48:37;15.48;;;7.00;;
50976;SDS011;36992;48.200;12.418;2022-12-18T05:51:05;13.02;;;5.60;;
50976;SDS011;36992;48.200;12.418;2022-12-18T05:53:33;14.07;;;6.90;;
50976;SDS011;36992;48.200;12.418;2022-12-18T05:56:00;13.57;;;6.47;;
50976;SDS011;36992;48.200;12.418;2022-12-18T05:58:29;14.77;;;6.65;;
50976;SDS011;36992;48.200;12.418;2022-12-18T06:00:56;10.70;;;4.63;;
50976;SDS011;36992;48.200;12.418;2022-12-18T06:03:23;9.55;;;4.43;;
50976;SDS011;36992;48.200;12.418;2022-12-18T06:05:50;13.40;;;5.88;;
50976;SDS011;36992;48.200;12.418;2022-12-18T06:08:17;11.70;;;5.32;;
50976;SDS011;36992;48.200;12.418;2022-12-18T06:10:48;15.38;;;6.97;;
50976;SDS011;36992;48.200;12.418;2022-12-18T06:13:16;12.77;;;5.70;;
50976;SDS011;36992;48.200;12.418;2022-12-18T06:15:44;10.98;;;4.57;;
50976;SDS011;36992;48.200;12.418;2022-12-18T06:18:10;10.43;;;4.95;;
50976;SDS011;36992;48.200;12.418;2022-12-18T06:20:37;12.00;;;5.40;;
50976;SDS011;36992;48.200;12.418;2022-12-18T06:23:04;13.98;;;6.10;;
50976;SDS011;36992;48.200;12.418;2022-12-18T06:25:31;10.32;;;4.85;;
50976;SDS011;36992;48.200;12.418;2022-12-18T06:27:58;12.35;;;4.90;;
50976;SDS011;36992;48.200;12.418;2022-12-18T06:30:24;12.30;;;5.35;;
50976;SDS011;36992;48.200;12.418;2022-12-18T06:32:52;12.98;;;6.22;;
50976;SDS011;36992;48.200;12.418;2022-12-18T06:35:19;12.25;;;5.70;;
50976;SDS011;36992;48.200;12.418;2022-12-18T06:37:45;14.15;;;5.50;;
50976;SDS011;36992;48.200;12.418;2022-12-18T06:40:12;15.32;;;6.07;;
50976;SDS011;36992;48.200;12.418;2022-12-18T06:42:38;12.13;;;5.20;;
50976;SDS011;36992;48.200;12.418;2022-12-18T06:45:05;14.77;;;5.82;;
50976;SDS011;36992;48.200;12.418;2022-12-18T06:47:32;12.20;;;5.20;;
50976;SDS011;36992;48.200;12.418;2022-12-18T06:50:00;12.23;;;5.45;;
50976;SDS011;36992;48.200;12.418;2022-12-18T06:52:27;12.95;;;5.70;;
50976;SDS011;36992;48.200;12.418;2022-12-18T06:54:53;10.88;;;4.90;;
50976;SDS011;36992;48.200;12.418;2022-12-18T06:57:20;12.95;;;5.72;;
50976;SDS011;36992;48.200;12.418;2022-12-18T06:59:46;10.65;;;4.78;;
50976;SDS011;36992;48.200;12.418;2022-12-18T07:02:13;11.65;;;5.10;;
50976;SDS011;36992;48.200;12.418;2022-12-18T07:04:39;13.77;;;6.28;;
50976;SDS011;36992;48.200;12.418;2022-12-18T07:07:07;12.40;;;4.95;;
50976;SDS011;36992;48.200;12.418;2022-12-18T07:09:33;12.98;;;5.15;;
50976;SDS011;36992;48.200;12.418;2022-12-18T07:12:00;14.63;;;6.07;;
50976;SDS011;36992;48.200;12.418;2022-12-18T07:14:27;11.48;;;5.60;;
50976;SDS011;36992;48.200;12.418;2022-12-18T07:16:53;12.82;;;4.82;;
50976;SDS011;36992;48.200;12.418;2022-12-18T07:19:22;13.07;;;5.32;;
50976;SDS011;36992;48.200;12.418;2022-12-18T07:21:49;14.75;;;6.32;;
50976;SDS011;36992;48.200;12.418;2022-12-18T07:24:17;12.02;;;5.65;;
50976;SDS011;36992;48.200;12.418;2022-12-18T07:26:45;10.68;;;4.90;;
50976;SDS011;36992;48.200;12.418;2022-12-18T07:29:11;12.52;;;5.30;;
50976;SDS011;36992;48.200;12.418;2022-12-18T07:31:38;11.80;;;4.53;;
50976;SDS011;36992;48.200;12.418;2022-12-18T07:34:05;12.35;;;5.63;;
50976;SDS011;36992;48.200;12.418;2022-12-18T07:36:31;12.07;;;5.45;;
50976;SDS011;36992;48.200;12.418;2022-12-18T07:38:58;13.20;;;5.72;;
50976;SDS011;36992;48.200;12.418;2022-12-18T07:41:25;10.00;;;4.32;;
50976;SDS011;36992;48.200;12.418;2022-12-18T07:43:52;12.35;;;6.75;;
50976;SDS011;36992;48.200;12.418;2022-12-18T07:46:18;11.00;;;6.18;;
50976;SDS011;36992;48.200;12.418;2022-12-18T07:48:45;10.30;;;5.00;;
50976;SDS011;36992;48.200;12.418;2022-12-18T07:51:13;11.13;;;4.93;;
50976;SDS011;36992;48.200;12.418;2022-12-18T07:53:40;10.40;;;5.35;;
50976;SDS011;36992;48.200;12.418;2022-12-18T07:56:07;15.95;;;6.70;;
50976;SDS011;36992;48.200;12.418;2022-12-18T07:58:37;11.10;;;5.85;;
50976;SDS011;36992;48.200;12.418;2022-12-18T08:01:04;10.18;;;4.72;;
50976;SDS011;36992;48.200;12.418;2022-12-18T08:03:32;10.57;;;5.60;;
50976;SDS011;36992;48.200;12.418;2022-12-18T08:05:59;10.55;;;4.97;;
50976;SDS011;36992;48.200;12.418;2022-12-18T08:08:26;12.13;;;5.60;;
50976;SDS011;36992;48.200;12.418;2022-12-18T08:10:53;10.70;;;4.90;;
50976;SDS011;36992;48.200;12.418;2022-12-18T08:13:19;10.50;;;4.68;;
50976;SDS011;36992;48.200;12.418;2022-12-18T08:15:48;9.65;;;4.93;;
50976;SDS011;36992;48.200;12.418;2022-12-18T08:18:21;9.65;;;4.15;;
50976;SDS011;36992;48.200;12.418;2022-12-18T08:20:48;10.73;;;4.68;;
50976;SDS011;36992;48.200;12.418;2022-12-18T08:23:15;11.02;;;4.10;;
50976;SDS011;36992;48.200;12.418;2022-12-18T08:25:41;11.10;;;4.57;;
50976;SDS011;36992;48.200;12.418;2022-12-18T08:28:07;8.82;;;3.90;;
50976;SDS011;36992;48.200;12.418;2022-12-18T08:30:35;9.30;;;4.40;;
50976;SDS011;36992;48.200;12.418;2022-12-18T08:33:03;10.55;;;4.57;;
50976;SDS011;36992;48.200;12.418;2022-12-18T08:35:29;9.38;;;4.45;;
50976;SDS011;36992;48.200;12.418;2022-12-18T08:37:56;9.40;;;3.97;;
50976;SDS011;36992;48.200;12.418;2022-12-18T08:40:22;10.48;;;4.75;;
50976;SDS011;36992;48.200;12.418;2022-12-18T08:42:49;15.10;;;6.82;;
50976;SDS011;36992;48.200;12.418;2022-12-18T08:45:33;8.63;;;3.83;;
50976;SDS011;36992;48.200;12.418;2022-12-18T08:48:00;11.55;;;5.10;;
50976;SDS011;36992;48.200;12.418;2022-12-18T08:50:27;11.75;;;5.20;;
50976;SDS011;36992;48.200;12.418;2022-12-18T08:52:54;12.80;;;6.45;;
50976;SDS011;36992;48.200;12.418;2022-12-18T08:55:20;12.05;;;5.03;;
50976;SDS011;36992;48.200;12.418;2022-12-18T08:57:47;13.73;;;6.25;;
50976;SDS011;36992;48.200;12.418;2022-12-18T09:00:14;12.02;;;5.70;;
50976;SDS011;36992;48.200;12.418;2022-12-18T09:02:41;11.15;;;5.60;;
50976;SDS011;36992;48.200;12.418;2022-12-18T09:05:08;11.88;;;5.70;;
50976;SDS011;36992;48.200;12.418;2022-12-18T09:07:36;13.75;;;6.38;;
50976;SDS011;36992;48.200;12.418;2022-12-18T09:10:03;11.60;;;5.25;;
50976;SDS011;36992;48.200;12.418;2022-12-18T09:12:30;10.65;;;5.05;;
50976;SDS011;36992;48.200;12.418;2022-12-18T09:14:57;8.95;;;4.38;;
50976;SDS011;36992;48.200;12.418;2022-12-18T09:17:23;9.40;;;4.50;;
50976;SDS011;36992;48.200;12.418;2022-12-18T09:19:50;11.27;;;4.50;;
50976;SDS011;36992;48.200;12.418;2022-12-18T09:22:16;11.68;;;4.82;;
50976;SDS011;36992;48.200;12.418;2022-12-18T09:24:44;8.95;;;4.03;;
50976;SDS011;36992;48.200;12.418;2022-12-18T09:27:11;9.85;;;4.57;;
50976;SDS011;36992;48.200;12.418;2022-12-18T09:29:37;7.60;;;3.45;;
50976;SDS011;36992;48.200;12.418;2022-12-18T09:32:04;8.15;;;3.75;;
50976;SDS011;36992;48.200;12.418;2022-12-18T09:34:31;12.32;;;4.95;;
50976;SDS011;36992;48.200;12.418;2022-12-18T09:36:57;10.35;;;4.43;;
50976;SDS011;36992;48.200;12.418;2022-12-18T09:39:24;7.72;;;4.00;;
50976;SDS011;36992;48.200;12.418;2022-12-18T09:41:53;8.85;;;3.80;;
50976;SDS011;36992;48.200;12.418;2022-12-18T09:44:22;9.10;;;4.03;;
50976;SDS011;36992;48.200;12.418;2022-12-18T09:46:53;12.35;;;5.47;;
50976;SDS011;36992;48.200;12.418;2022-12-18T09:49:27;10.25;;;3.95;;
50976;SDS011;36992;48.200;12.418;2022-12-18T09:51:57;8.57;;;3.60;;
50976;SDS011;36992;48.200;12.418;2022-12-18T09:54:30;12.55;;;4.40;;
50976;SDS011;36992;48.200;12.418;2022-12-18T09:57:02;9.48;;;4.00;;
50976;SDS011;36992;48.200;12.418;2022-12-18T09:59:30;11.18;;;4.63;;
50976;SDS011;36992;48.200;12.418;2022-12-18T10:02:00;8.90;;;4.28;;
50976;SDS011;36992;48.200;12.418;2022-12-18T10:04:41;10.18;;;4.35;;
50976;SDS011;36992;48.200;12.418;2022-12-18T10:07:09;10.25;;;4.35;;
50976;SDS011;36992;48.200;12.418;2022-12-18T10:09:43;8.68;;;4.40;;
50976;SDS011;36992;48.200;12.418;2022-12-18T10:12:20;10.80;;;3.75;;
50976;SDS011;36992;48.200;12.418;2022-12-18T10:14:53;8.82;;;4.13;;
50976;SDS011;36992;48.200;12.418;2022-12-18T10:17:28;10.93;;;4.70;;
50976;SDS011;36992;48.200;12.418;2022-12-18T10:20:01;11.02;;;5.05;;
50976;SDS011;36992;48.200;12.418;2022-12-18T10:22:36;12.68;;;5.60;;
50976;SDS011;36992;48.200;12.418;2022-12-18T10:25:15;9.70;;;5.45;;
50976;SDS011;36992;48.200;12.418;2022-12-18T10:27:49;10.05;;;5.07;;
50976;SDS011;36992;48.200;12.418;2022-12-18T10:30:20;11.73;;;5.82;;
50976;SDS011;36992;48.200;12.418;2022-12-18T10:32:48;9.05;;;4.97;;
50976;SDS011;36992;48.200;12.418;2022-12-18T10:35:17;11.07;;;4.53;;
50976;SDS011;36992;48.200;12.418;2022-12-18T10:37:59;13.15;;;5.80;;
50976;SDS011;36992;48.200;12.418;2022-12-18T10:40:26;11.52;;;4.95;;
50976;SDS011;36992;48.200;12.418;2022-12-18T10:43:04;11.18;;;5.60;;
50976;SDS011;36992;48.200;12.418;2022-12-18T10:45:32;10.55;;;5.18;;
50976;SDS011;36992;48.200;12.418;2022-12-18T10:47:59;9.73;;;5.13;;
50976;SDS011;36992;48.200;12.418;2022-12-18T10:50:26;9.45;;;4.78;;
50976;SDS011;36992;48.200;12.418;2022-12-18T10:52:57;11.73;;;5.00;;
50976;SDS011;36992;48.200;12.418;2022-12-18T10:55:26;13.48;;;5.65;;
50976;SDS011;36992;48.200;12.418;2022-12-18T10:57:56;11.98;;;5.45;;
50976;SDS011;36992;48.200;12.418;2022-12-18T11:00:43;11.85;;;6.03;;
50976;SDS011;36992;48.200;12.418;2022-12-18T11:03:28;10.30;;;4.32;;
50976;SDS011;36992;48.200;12.418;2022-12-18T11:06:03;12.05;;;4.95;;
50976;SDS011;36992;48.200;12.418;2022-12-18T11:08:34;14.20;;;6.93;;
50976;SDS011;36992;48.200;12.418;2022-12-18T11:11:01;8.55;;;4.65;;
50976;SDS011;36992;48.200;12.418;2022-12-18T11:13:31;12.15;;;5.72;;
50976;SDS011;36992;48.200;12.418;2022-12-18T11:15:58;10.27;;;4.85;;
50976;SDS011;36992;48.200;12.418;2022-12-18T11:18:27;12.07;;;5.57;;
50976;SDS011;36992;48.200;12.418;2022-12-18T11:20:56;11.57;;;4.82;;
50976;SDS011;36992;48.200;12.418;2022-12-18T11:23:25;10.65;;;4.53;;
50976;SDS011;36992;48.200;12.418;2022-12-18T11:25:54;8.52;;;3.85;;
50976;SDS011;36992;48.200;12.418;2022-12-18T11:28:27;7.45;;;3.97;;
50976;SDS011;36992;48.200;12.418;2022-12-18T11:33:49;9.02;;;4.70;;
50976;SDS011;36992;48.200;12.418;2022-12-18T11:36:20;11.18;;;4.80;;
50976;SDS011;36992;48.200;12.418;2022-12-18T11:38:49;10.60;;;5.35;;
50976;SDS011;36992;48.200;12.418;2022-12-18T11:41:21;9.73;;;4.25;;
50976;SDS011;36992;48.200;12.418;2022-12-18T11:44:13;12.93;;;5.50;;
50976;SDS011;36992;48.200;12.418;2022-12-18T11:46:46;13.27;;;5.28;;
50976;SDS011;36992;48.200;12.418;2022-12-18T11:49:18;9.27;;;4.35;;
50976;SDS011;36992;48.200;12.418;2022-12-18T11:51:49;9.25;;;3.85;;
50976;SDS011;36992;48.200;12.418;2022-12-18T11:54:20;9.95;;;4.32;;
50976;SDS011;36992;48.200;12.418;2022-12-18T11:56:48;11.52;;;5.35;;
50976;SDS011;36992;48.200;12.418;2022-12-18T11:59:19;8.68;;;4.45;;
50976;SDS011;36992;48.200;12.418;2022-12-18T12:01:58;12.15;;;5.72;;
50976;SDS011;36992;48.200;12.418;2022-12-18T12:07:41;11.25;;;6.15;;
50976;SDS011;36992;48.200;12.418;2022-12-18T12:10:20;9.57;;;4.25;;
50976;SDS011;36992;48.200;12.418;2022-12-18T12:12:57;7.78;;;3.75;;
50976;SDS011;36992;48.200;12.418;2022-12-18T12:15:39;10.20;;;4.20;;
50976;SDS011;36992;48.200;12.418;2022-12-18T12:18:16;9.55;;;4.43;;
50976;SDS011;36992;48.200;12.418;2022-12-18T12:20:56;11.55;;;5.07;;
50976;SDS011;36992;48.200;12.418;2022-12-18T12:23:33;11.63;;;4.35;;
50976;SDS011;36992;48.200;12.418;2022-12-18T12:26:07;9.20;;;5.32;;
50976;SDS011;36992;48.200;12.418;2022-12-18T12:28:50;10.63;;;4.35;;
50976;SDS011;36992;48.200;12.418;2022-12-18T12:31:32;10.77;;;4.88;;
50976;SDS011;36992;48.200;12.418;2022-12-18T12:34:09;9.75;;;5.00;;
50976;SDS011;36992;48.200;12.418;2022-12-18T12:36:46;9.25;;;3.90;;
50976;SDS011;36992;48.200;12.418;2022-12-18T12:39:30;9.30;;;3.90;;
50976;SDS011;36992;48.200;12.418;2022-12-18T12:41:59;12.80;;;5.70;;
50976;SDS011;36992;48.200;12.418;2022-12-18T12:44:45;9.70;;;4.63;;
50976;SDS011;36992;48.200;12.418;2022-12-18T12:47:18;7.32;;;3.40;;
50976;SDS011;36992;48.200;12.418;2022-12-18T12:49:50;8.93;;;4.18;;
50976;SDS011;36992;48.200;12.418;2022-12-18T12:52:17;9.32;;;4.85;;
50976;SDS011;36992;48.200;12.418;2022-12-18T12:54:53;11.65;;;5.60;;
50976;SDS011;36992;48.200;12.418;2022-12-18T12:57:21;8.88;;;4.35;;
50976;SDS011;36992;48.200;12.418;2022-12-18T12:59:56;11.60;;;5.28;;
50976;SDS011;36992;48.200;12.418;2022-12-18T13:02:28;10.02;;;3.75;;
50976;SDS011;36992;48.200;12.418;2022-12-18T13:05:03;11.82;;;4.80;;
50976;SDS011;36992;48.200;12.418;2022-12-18T13:07:36;8.05;;;3.83;;
50976;SDS011;36992;48.200;12.418;2022-12-18T13:10:11;8.75;;;4.25;;
50976;SDS011;36992;48.200;12.418;2022-12-18T13:12:50;8.25;;;4.32;;
50976;SDS011;36992;48.200;12.418;2022-12-18T13:15:24;8.60;;;4.32;;
50976;SDS011;36992;48.200;12.418;2022-12-18T13:18:05;8.52;;;4.05;;
50976;SDS011;36992;48.200;12.418;2022-12-18T13:20:49;11.50;;;4.72;;
50976;SDS011;36992;48.200;12.418;2022-12-18T13:23:33;10.15;;;5.43;;
50976;SDS011;36992;48.200;12.418;2022-12-18T13:29:01;8.40;;;3.90;;
50976;SDS011;36992;48.200;12.418;2022-12-18T13:34:29;8.55;;;3.90;;
50976;SDS011;36992;48.200;12.418;2022-12-18T13:43:22;10.02;;;4.15;;
50976;SDS011;36992;48.200;12.418;2022-12-18T13:45:59;10.55;;;4.30;;
50976;SDS011;36992;48.200;12.418;2022-12-18T13:48:29;9.10;;;4.25;;
50976;SDS011;36992;48.200;12.418;2022-12-18T13:50:59;8.02;;;3.53;;
50976;SDS011;36992;48.200;12.418;2022-12-18T13:53:31;8.88;;;4.43;;
50976;SDS011;36992;48.200;12.418;2022-12-18T13:56:02;11.75;;;4.68;;
50976;SDS011;36992;48.200;12.418;2022-12-18T13:58:29;7.95;;;3.60;;
50976;SDS011;36992;48.200;12.418;2022-12-18T14:00:55;12.65;;;5.38;;
50976;SDS011;36992;48.200;12.418;2022-12-18T14:03:24;9.65;;;4.32;;
50976;SDS011;36992;48.200;12.418;2022-12-18T14:05:58;9.80;;;4.45;;
50976;SDS011;36992;48.200;12.418;2022-12-18T14:08:34;10.13;;;4.78;;
50976;SDS011;36992;48.200;12.418;2022-12-18T14:11:04;10.65;;;4.88;;
50976;SDS011;36992;48.200;12.418;2022-12-18T14:13:33;12.00;;;5.15;;
50976;SDS011;36992;48.200;12.418;2022-12-18T14:16:03;17.08;;;7.03;;
50976;SDS011;36992;48.200;12.418;2022-12-18T14:18:34;9.77;;;4.95;;
50976;SDS011;36992;48.200;12.418;2022-12-18T14:21:14;10.60;;;5.65;;
50976;SDS011;36992;48.200;12.418;2022-12-18T14:23:46;10.00;;;4.32;;
50976;SDS011;36992;48.200;12.418;2022-12-18T14:26:20;11.55;;;5.43;;
50976;SDS011;36992;48.200;12.418;2022-12-18T14:28:50;9.02;;;3.88;;
50976;SDS011;36992;48.200;12.418;2022-12-18T14:31:19;9.95;;;4.38;;
50976;SDS011;36992;48.200;12.418;2022-12-18T14:33:46;8.68;;;4.43;;
50976;SDS011;36992;48.200;12.418;2022-12-18T14:36:15;10.57;;;4.80;;
50976;SDS011;36992;48.200;12.418;2022-12-18T14:38:43;10.30;;;4.30;;
50976;SDS011;36992;48.200;12.418;2022-12-18T14:41:17;10.43;;;4.57;;
50976;SDS011;36992;48.200;12.418;2022-12-18T14:43:45;9.23;;;4.90;;
50976;SDS011;36992;48.200;12.418;2022-12-18T14:46:27;9.98;;;5.20;;
50976;SDS011;36992;48.200;12.418;2022-12-18T14:48:57;11.23;;;4.40;;
50976;SDS011;36992;48.200;12.418;2022-12-18T14:51:25;9.13;;;3.83;;
50976;SDS011;36992;48.200;12.418;2022-12-18T14:53:55;10.73;;;4.28;;
50976;SDS011;36992;48.200;12.418;2022-12-18T14:56:24;7.78;;;3.25;;
50976;SDS011;36992;48.200;12.418;2022-12-18T14:58:53;10.75;;;4.13;;